createdAt,value
2018-07-04T00:01:30.204Z,1.57
2018-07-04T00:07:24.234Z,1.80
2018-07-04T00:10:15.094Z,1.73
2018-07-04T00:13:01.587Z,1.97
2018-07-04T00:15:47.898Z,1.80
2018-07-04T00:18:34.127Z,1.50
2018-07-04T00:21:21.670Z,1.77
2018-07-04T00:24:08.120Z,1.90
2018-07-04T00:26:54.381Z,1.77
2018-07-04T00:29:40.772Z,1.70
2018-07-04T00:32:29.334Z,2.03
2018-07-04T00:35:15.744Z,1.50
2018-07-04T00:38:02.102Z,2.03
2018-07-04T00:40:48.550Z,1.80
2018-07-04T00:43:34.848Z,2.10
2018-07-04T00:46:21.256Z,1.83
2018-07-04T00:49:07.493Z,2.13
2018-07-04T00:51:53.960Z,1.90
2018-07-04T00:54:40.404Z,2.43
2018-07-04T00:57:26.930Z,1.50
2018-07-04T01:00:15.353Z,1.60
2018-07-04T01:03:01.715Z,1.90
2018-07-04T01:05:48.115Z,1.87
2018-07-04T01:08:34.439Z,2.20
2018-07-04T01:11:20.758Z,1.80
2018-07-04T01:14:07.073Z,1.70
2018-07-04T01:16:53.506Z,1.50
2018-07-04T01:19:39.737Z,1.90
2018-07-04T01:22:26.030Z,1.60
2018-07-04T01:25:12.476Z,2.43
2018-07-04T01:27:58.841Z,2.07
2018-07-04T01:30:45.262Z,1.90
2018-07-04T01:33:31.575Z,1.77
2018-07-04T01:36:12.184Z,1.63
2018-07-04T01:38:58.530Z,1.90
2018-07-04T01:41:44.948Z,2.10
2018-07-04T01:44:31.266Z,1.77
2018-07-04T01:47:17.654Z,2.10
2018-07-04T01:50:04.213Z,1.70
2018-07-04T01:52:50.740Z,2.20
2018-07-04T01:55:37.245Z,1.93
2018-07-04T01:58:23.720Z,1.90
2018-07-04T02:01:10.147Z,2.13
2018-07-04T02:03:56.580Z,2.10
2018-07-04T02:06:42.946Z,2.00
2018-07-04T02:09:29.328Z,2.20
2018-07-04T02:12:15.764Z,1.87
2018-07-04T02:15:02.014Z,1.67
2018-07-04T02:17:48.517Z,1.93
2018-07-04T02:20:35.029Z,2.00
2018-07-04T02:23:21.352Z,1.93
2018-07-04T02:26:07.678Z,2.10
2018-07-04T02:28:54.013Z,2.07
2018-07-04T02:31:41.409Z,1.87
2018-07-04T02:34:27.602Z,1.70
2018-07-04T02:37:13.945Z,1.80
2018-07-04T02:40:00.137Z,2.00
2018-07-04T02:42:51.211Z,1.70
2018-07-04T02:45:37.895Z,2.07
2018-07-04T02:48:24.110Z,1.87
2018-07-04T02:51:10.452Z,2.20
2018-07-04T02:53:56.740Z,1.60
2018-07-04T02:56:43.116Z,1.90
2018-07-04T02:59:29.540Z,1.70
2018-07-04T03:02:16.846Z,1.73
2018-07-04T03:05:03.052Z,2.00
2018-07-04T03:07:49.360Z,1.70
2018-07-04T03:10:35.617Z,2.10
2018-07-04T03:13:22.018Z,1.83
2018-07-04T03:16:08.563Z,1.80
2018-07-04T03:18:54.847Z,2.00
2018-07-04T03:21:41.173Z,1.83
2018-07-04T03:24:27.568Z,1.93
2018-07-04T03:27:13.827Z,2.00
2018-07-04T03:30:00.116Z,2.30
2018-07-04T03:32:40.614Z,1.70
2018-07-04T03:35:20.916Z,2.00
2018-07-04T03:38:07.306Z,1.80
2018-07-04T03:40:53.782Z,2.30
2018-07-04T03:43:40.152Z,1.80
2018-07-04T03:46:26.457Z,2.10
2018-07-04T03:49:13.007Z,2.20
2018-07-04T03:51:59.448Z,1.87
2018-07-04T03:54:45.830Z,1.90
2018-07-04T03:57:32.154Z,1.90
2018-07-04T04:00:18.455Z,2.40
2018-07-04T04:03:04.903Z,2.20
2018-07-04T04:05:51.136Z,2.03
2018-07-04T04:08:37.656Z,2.10
2018-07-04T04:11:24.103Z,1.80
2018-07-04T04:14:10.498Z,1.90
2018-07-04T04:16:56.849Z,2.13
2018-07-04T04:19:43.118Z,2.10
2018-07-04T04:22:29.592Z,1.67
2018-07-04T04:25:16.082Z,2.00
2018-07-04T04:28:02.393Z,1.70
2018-07-04T04:30:50.048Z,1.87
2018-07-04T04:33:36.357Z,2.40
2018-07-04T04:36:23.234Z,2.00
2018-07-04T04:39:09.767Z,1.70
2018-07-04T04:41:50.098Z,2.07
2018-07-04T04:44:36.411Z,1.50
2018-07-04T04:47:22.852Z,1.80
2018-07-04T04:50:09.241Z,1.80
2018-07-04T04:52:55.705Z,1.70
2018-07-04T04:55:43.141Z,2.00
2018-07-04T04:58:29.535Z,2.27
2018-07-04T05:01:15.836Z,2.07
2018-07-04T05:04:02.160Z,2.00
2018-07-04T05:06:42.590Z,1.90
2018-07-04T05:09:28.894Z,2.17
2018-07-04T05:12:15.216Z,1.93
2018-07-04T05:15:01.496Z,1.80
2018-07-04T05:17:47.843Z,1.90
2018-07-04T05:20:34.083Z,2.27
2018-07-04T05:23:20.345Z,1.60
2018-07-04T05:26:06.809Z,1.70
2018-07-04T05:28:55.509Z,2.27
2018-07-04T05:31:41.859Z,2.13
2018-07-04T05:34:28.144Z,1.73
2018-07-04T05:37:15.568Z,1.60
2018-07-04T05:40:01.901Z,1.57
2018-07-04T05:42:48.724Z,1.60
2018-07-04T05:45:34.961Z,1.87
2018-07-04T05:48:21.312Z,1.60
2018-07-04T05:51:01.906Z,1.40
2018-07-04T05:53:48.233Z,1.93
2018-07-04T05:56:34.473Z,1.50
2018-07-04T05:59:20.848Z,1.63
2018-07-04T06:02:07.404Z,2.07
2018-07-04T06:04:53.874Z,1.80
2018-07-04T06:07:40.213Z,1.60
2018-07-04T06:10:26.511Z,1.83
2018-07-04T06:13:17.977Z,1.70
2018-07-04T06:16:04.294Z,2.40
2018-07-04T06:18:50.692Z,1.47
2018-07-04T06:21:37.096Z,1.73
2018-07-04T06:24:23.400Z,1.70
2018-07-04T06:27:09.773Z,1.90
2018-07-04T06:29:56.308Z,1.87
2018-07-04T06:32:42.742Z,2.63
2018-07-04T06:35:28.981Z,1.93
2018-07-04T06:38:02.924Z,1.77
2018-07-04T06:40:30.808Z,2.00
2018-07-04T06:42:58.653Z,1.80
2018-07-04T06:45:26.536Z,1.90
2018-07-04T06:47:54.390Z,2.10
2018-07-04T06:50:22.278Z,1.93
2018-07-04T06:52:50.238Z,2.53
2018-07-04T06:55:18.121Z,1.50
2018-07-04T06:57:45.992Z,2.27
2018-07-04T07:00:13.890Z,2.13
2018-07-04T07:02:43.748Z,2.00
2018-07-04T07:05:23.994Z,1.70
2018-07-04T07:08:10.372Z,2.60
2018-07-04T07:10:56.701Z,2.20
2018-07-04T07:13:44.073Z,1.70
2018-07-04T07:16:30.521Z,1.77
2018-07-04T07:19:16.939Z,2.20
2018-07-04T07:22:03.325Z,2.10
2018-07-04T07:24:49.672Z,2.13
2018-07-04T07:27:36.999Z,1.90
2018-07-04T07:30:24.421Z,1.60
2018-07-04T07:33:14.019Z,2.27
2018-07-04T07:36:00.240Z,2.03
2018-07-04T07:38:46.547Z,2.60
2018-07-04T07:41:32.885Z,2.20
2018-07-04T07:44:20.160Z,2.77
2018-07-04T07:47:06.392Z,1.70
2018-07-04T07:49:53.273Z,1.67
2018-07-04T07:52:39.666Z,2.17
2018-07-04T07:55:26.054Z,1.80
2018-07-04T07:58:12.391Z,2.30
2018-07-04T08:00:58.601Z,2.03
2018-07-04T08:03:44.959Z,1.93
2018-07-04T08:06:31.187Z,1.90
2018-07-04T08:09:17.416Z,2.00
2018-07-04T08:12:03.764Z,1.87
2018-07-04T08:14:50.240Z,1.67
2018-07-04T08:17:36.487Z,2.20
2018-07-04T08:20:23.009Z,1.30
2018-07-04T08:23:09.556Z,1.60
2018-07-04T08:25:56.048Z,1.40
2018-07-04T08:28:42.549Z,1.40
2018-07-04T08:31:28.811Z,1.43
2018-07-04T08:34:15.204Z,1.60
2018-07-04T08:37:01.456Z,1.60
2018-07-04T08:39:47.790Z,1.77
2018-07-04T08:42:39.786Z,2.30
2018-07-04T08:45:26.116Z,1.30
2018-07-04T08:48:12.365Z,1.43
2018-07-04T08:50:58.923Z,1.60
2018-07-04T08:53:45.452Z,1.50
2018-07-04T08:56:31.787Z,1.27
2018-07-04T08:59:18.265Z,1.50
2018-07-04T09:02:04.687Z,1.20
2018-07-04T09:04:51.005Z,1.27
2018-07-04T09:07:37.364Z,1.33
2018-07-04T09:10:17.780Z,1.80
2018-07-04T09:13:04.121Z,1.83
2018-07-04T09:15:51.547Z,1.50
2018-07-04T09:18:37.811Z,1.37
2018-07-04T09:21:25.152Z,1.47
2018-07-04T09:24:11.552Z,1.30
2018-07-04T09:26:54.101Z,1.40
2018-07-04T09:29:40.464Z,1.30
2018-07-04T09:32:27.990Z,1.30
2018-07-04T09:35:20.052Z,1.17
2018-07-04T09:38:06.453Z,1.03
2018-07-04T09:40:52.800Z,1.40
2018-07-04T09:43:39.185Z,1.00
2018-07-04T09:46:25.522Z,1.47
2018-07-04T09:49:11.756Z,1.33
2018-07-04T09:51:58.183Z,1.43
2018-07-04T09:54:44.481Z,1.10
2018-07-04T09:57:30.717Z,1.10
2018-07-04T10:00:21.197Z,1.00
2018-07-04T10:03:07.872Z,0.90
2018-07-04T10:05:54.213Z,1.00
2018-07-04T10:08:40.394Z,0.97
2018-07-04T10:11:26.935Z,0.80
2018-07-04T10:14:13.367Z,1.00
2018-07-04T10:16:59.865Z,0.80
2018-07-04T10:19:46.248Z,1.00
2018-07-04T10:22:32.568Z,0.90
2018-07-04T10:25:21.069Z,1.17
2018-07-04T10:28:07.320Z,1.07
2018-07-04T10:30:53.620Z,0.90
2018-07-04T10:33:39.836Z,0.80
2018-07-04T10:36:26.115Z,0.90
2018-07-04T10:39:12.569Z,1.00
2018-07-04T10:41:58.906Z,0.90
2018-07-04T10:44:45.327Z,1.00
2018-07-04T10:47:32.858Z,0.90
2018-07-04T10:50:19.435Z,0.80
2018-07-04T10:53:05.897Z,1.37
2018-07-04T10:55:52.271Z,0.90
2018-07-04T10:58:32.592Z,0.77
2018-07-04T11:01:18.976Z,1.20
2018-07-04T11:04:05.387Z,0.90
2018-07-04T11:06:51.661Z,0.80
2018-07-04T11:09:38.403Z,0.90
2018-07-04T11:12:26.827Z,1.17
2018-07-04T11:15:13.080Z,1.20
2018-07-04T11:17:59.611Z,0.90
2018-07-04T11:20:46.103Z,0.97
2018-07-04T11:23:32.411Z,0.90
2018-07-04T11:26:18.788Z,1.10
2018-07-04T11:28:59.198Z,0.90
2018-07-04T11:31:47.500Z,1.10
2018-07-04T11:34:33.740Z,0.80
2018-07-04T11:37:21.139Z,0.80
2018-07-04T11:40:07.515Z,0.80
2018-07-04T11:42:53.740Z,0.70
2018-07-04T11:45:40.065Z,0.70
2018-07-04T11:48:14.300Z,0.90
2018-07-04T11:50:42.052Z,1.00
2018-07-04T11:53:09.945Z,0.90
2018-07-04T11:55:37.794Z,0.80
2018-07-04T11:58:07.660Z,1.00
2018-07-04T12:00:35.527Z,1.13
2018-07-04T12:03:19.825Z,1.00
2018-07-04T12:06:02.100Z,0.80
2018-07-04T12:08:36.037Z,0.90
2018-07-04T12:11:03.915Z,0.93
2018-07-04T12:13:31.752Z,0.90
2018-07-04T12:15:59.668Z,0.80
2018-07-04T12:18:29.471Z,0.93
2018-07-04T12:20:57.443Z,0.90
2018-07-04T12:23:26.256Z,0.83
2018-07-04T12:25:54.436Z,0.90
2018-07-04T12:28:22.193Z,0.97
2018-07-04T12:30:50.068Z,0.87
2018-07-04T12:33:17.916Z,0.90
2018-07-04T12:35:45.804Z,1.00
2018-07-04T12:38:13.643Z,0.70
2018-07-04T12:40:47.661Z,0.60
2018-07-04T12:43:15.763Z,0.87
2018-07-04T12:45:43.657Z,0.83
2018-07-04T12:48:11.520Z,1.00
2018-07-04T12:50:41.338Z,0.70
2018-07-04T12:53:09.208Z,0.90
2018-07-04T12:55:49.463Z,0.90
2018-07-04T12:58:35.868Z,1.20
2018-07-04T13:01:22.263Z,1.00
2018-07-04T13:04:08.572Z,1.03
2018-07-04T13:06:55.107Z,0.90
2018-07-04T13:09:46.299Z,1.07
2018-07-04T13:12:32.663Z,1.10
2018-07-04T13:15:19.089Z,1.30
2018-07-04T13:18:05.503Z,0.90
2018-07-04T13:20:51.912Z,1.03
2018-07-04T13:23:38.497Z,0.90
2018-07-04T13:26:24.772Z,1.00
2018-07-04T13:29:11.139Z,0.90
2018-07-04T13:31:57.944Z,0.97
2018-07-04T13:34:44.650Z,0.90
2018-07-04T13:37:31.500Z,0.97
2018-07-04T13:40:18.077Z,1.37
2018-07-04T13:43:04.744Z,1.20
2018-07-04T13:45:51.573Z,1.00
2018-07-04T13:48:38.057Z,1.20
2018-07-04T13:51:24.694Z,1.50
2018-07-04T13:54:11.342Z,1.13
2018-07-04T13:56:57.986Z,1.20
2018-07-04T13:59:44.297Z,1.40
2018-07-04T14:02:30.756Z,1.27
2018-07-04T14:05:17.021Z,1.57
2018-07-04T14:08:05.537Z,1.30
2018-07-04T14:10:52.019Z,1.20
2018-07-04T14:13:38.340Z,1.57
2018-07-04T14:16:24.850Z,1.33
2018-07-04T14:19:11.290Z,1.10
2018-07-04T14:21:57.781Z,1.20
2018-07-04T14:24:44.165Z,1.60
2018-07-04T14:27:30.543Z,1.17
2018-07-04T14:30:17.064Z,1.43
2018-07-04T14:33:03.332Z,1.47
2018-07-04T14:35:49.684Z,1.27
2018-07-04T14:38:36.073Z,1.10
2018-07-04T14:41:16.416Z,1.20
2018-07-04T14:44:02.806Z,1.40
2018-07-04T14:46:49.369Z,2.57
2018-07-04T14:49:35.760Z,2.17
2018-07-04T14:52:23.258Z,2.13
2018-07-04T14:55:09.724Z,1.60
2018-07-04T14:57:56.284Z,1.73
2018-07-04T15:00:48.459Z,1.70
2018-07-04T15:03:34.797Z,1.80
2018-07-04T15:06:21.268Z,1.93
2018-07-04T15:09:07.757Z,2.40
2018-07-04T15:11:50.350Z,2.43
2018-07-04T15:14:37.911Z,2.10
2018-07-04T15:17:24.543Z,1.53
2018-07-04T15:20:04.974Z,1.60
2018-07-04T15:22:52.465Z,1.67
2018-07-04T15:25:40.951Z,1.30
2018-07-04T15:28:27.339Z,1.90
2018-07-04T15:31:13.836Z,1.60
2018-07-04T15:34:01.414Z,1.77
2018-07-04T15:36:47.937Z,1.60
2018-07-04T15:39:35.255Z,1.60
2018-07-04T15:42:23.701Z,1.77
2018-07-04T15:45:10.069Z,1.47
2018-07-04T15:47:56.545Z,1.70
2018-07-04T15:50:42.813Z,1.77
2018-07-04T15:53:29.316Z,1.93
2018-07-04T15:56:16.718Z,2.03
2018-07-04T15:59:03.108Z,1.60
2018-07-04T16:01:49.430Z,1.80
2018-07-04T16:04:35.783Z,1.30
2018-07-04T16:07:22.206Z,2.23
2018-07-04T16:10:08.584Z,1.50
2018-07-04T16:12:58.924Z,1.20
2018-07-04T16:15:45.272Z,1.50
2018-07-04T16:18:34.028Z,1.60
2018-07-04T16:21:20.512Z,1.80
2018-07-04T16:24:07.957Z,1.13
2018-07-04T16:26:57.157Z,1.23
2018-07-04T16:29:43.665Z,1.30
2018-07-04T16:32:31.486Z,1.40
2018-07-04T16:35:17.933Z,1.37
2018-07-04T16:38:04.383Z,1.37
2018-07-04T16:40:50.908Z,1.50
2018-07-04T16:43:37.353Z,1.00
2018-07-04T16:46:28.144Z,1.37
2018-07-04T16:49:14.435Z,1.60
2018-07-04T16:52:00.803Z,1.20
2018-07-04T16:54:47.331Z,1.37
2018-07-04T16:57:34.203Z,1.37
2018-07-04T17:00:21.374Z,1.53
2018-07-04T17:03:09.088Z,1.40
2018-07-04T17:06:00.681Z,1.40
2018-07-04T17:08:41.863Z,1.30
2018-07-04T17:11:28.526Z,1.30
2018-07-04T17:14:15.741Z,1.40
2018-07-04T17:17:03.151Z,1.50
2018-07-04T17:19:50.603Z,1.33
2018-07-04T17:22:37.395Z,1.57
2018-07-04T17:25:24.483Z,1.37
2018-07-04T17:28:12.079Z,1.37
2018-07-04T17:30:58.967Z,1.40
2018-07-04T17:33:46.522Z,1.57
2018-07-04T17:36:35.075Z,1.27
2018-07-04T17:39:23.296Z,1.30
2018-07-04T17:42:10.428Z,1.50
2018-07-04T17:44:57.177Z,1.50
2018-07-04T17:47:44.230Z,1.20
2018-07-04T17:50:31.185Z,1.23
2018-07-04T17:53:17.888Z,1.37
2018-07-04T17:55:58.803Z,1.27
2018-07-04T17:58:45.861Z,1.53
2018-07-04T18:01:32.937Z,1.80
2018-07-04T18:04:14.061Z,1.47
2018-07-04T18:07:00.629Z,1.27
2018-07-04T18:09:46.956Z,1.50
2018-07-04T18:12:33.360Z,1.67
2018-07-04T18:15:19.929Z,1.30
2018-07-04T18:18:06.527Z,1.30
2018-07-04T18:20:54.099Z,1.90
2018-07-04T18:23:40.397Z,1.77
2018-07-04T18:26:26.813Z,1.67
2018-07-04T18:29:13.303Z,1.57
2018-07-04T18:32:06.081Z,1.50
2018-07-04T18:34:52.705Z,1.60
2018-07-04T18:37:39.591Z,1.70
2018-07-04T18:40:28.180Z,1.50
2018-07-04T18:43:16.089Z,1.60
2018-07-04T18:46:05.486Z,1.60
2018-07-04T18:48:53.006Z,1.70
2018-07-04T18:51:42.199Z,1.70
2018-07-04T18:54:29.488Z,1.83
2018-07-04T18:57:16.801Z,2.30
2018-07-04T19:00:04.200Z,2.37
2018-07-04T19:02:52.214Z,1.70
2018-07-04T19:05:40.817Z,2.10
2018-07-04T19:08:27.272Z,2.00
2018-07-04T19:11:13.559Z,1.70
2018-07-04T19:13:59.958Z,2.50
2018-07-04T19:16:46.448Z,2.03
2018-07-04T19:19:32.837Z,2.10
2018-07-04T19:22:19.475Z,2.17
2018-07-04T19:25:05.883Z,2.80
2018-07-04T19:27:52.162Z,2.53
2018-07-04T19:30:38.507Z,2.43
2018-07-04T19:33:25.097Z,2.07
2018-07-04T19:36:11.973Z,2.40
2018-07-04T19:38:58.316Z,2.27
2018-07-04T19:41:44.656Z,2.40
2018-07-04T19:44:30.944Z,3.00
2018-07-04T19:47:18.295Z,2.50
2018-07-04T19:50:04.601Z,2.90
2018-07-04T19:52:50.908Z,3.60
2018-07-04T19:55:37.345Z,3.10
2018-07-04T19:58:23.606Z,3.20
2018-07-04T20:01:09.916Z,2.60
2018-07-04T20:03:56.295Z,2.90
2018-07-04T20:06:43.118Z,3.37
2018-07-04T20:09:29.989Z,3.30
2018-07-04T20:12:16.840Z,3.73
2018-07-04T20:15:03.463Z,3.10
2018-07-04T20:17:50.068Z,3.13
2018-07-04T20:20:36.540Z,3.10
2018-07-04T20:23:23.279Z,3.77
2018-07-04T20:26:10.768Z,3.37
2018-07-04T20:28:57.194Z,2.90
2018-07-04T20:31:43.848Z,3.57
2018-07-04T20:34:30.630Z,3.20
2018-07-04T20:37:17.215Z,3.40
2018-07-04T20:40:03.780Z,3.23
2018-07-04T20:42:50.285Z,3.40
2018-07-04T20:45:36.963Z,3.27
2018-07-04T20:48:23.628Z,3.20
2018-07-04T20:51:11.130Z,3.33
2018-07-04T20:53:57.797Z,3.70
2018-07-04T20:56:45.371Z,3.20
2018-07-04T20:59:31.663Z,3.87
2018-07-04T21:02:18.072Z,3.80
2018-07-04T21:05:06.552Z,4.03
2018-07-04T21:07:53.952Z,4.00
2018-07-04T21:10:40.248Z,3.57
2018-07-04T21:13:26.632Z,4.00
2018-07-04T21:16:16.328Z,3.90
2018-07-04T21:19:02.925Z,4.20
2018-07-04T21:21:49.527Z,4.47
2018-07-04T21:24:41.700Z,4.00
2018-07-04T21:27:28.384Z,3.63
2018-07-04T21:30:14.836Z,4.20
2018-07-04T21:33:01.664Z,3.80
2018-07-04T21:35:48.188Z,3.87
2018-07-04T21:38:36.770Z,4.03
2018-07-04T21:41:23.288Z,3.80
2018-07-04T21:44:09.909Z,4.07
2018-07-04T21:46:56.379Z,4.40
2018-07-04T21:49:42.756Z,3.90
2018-07-04T21:52:29.410Z,4.70
2018-07-04T21:55:15.900Z,4.30
2018-07-04T21:58:02.365Z,4.20
2018-07-04T22:00:49.728Z,4.20
2018-07-04T22:03:36.331Z,4.63
2018-07-04T22:06:22.586Z,4.50
2018-07-04T22:09:09.131Z,3.93
2018-07-04T22:11:55.825Z,4.10
2018-07-04T22:14:42.285Z,4.40
2018-07-04T22:17:28.629Z,4.60
2018-07-04T22:20:15.014Z,5.17
2018-07-04T22:23:01.488Z,4.53
2018-07-04T22:25:41.971Z,4.87
2018-07-04T22:28:28.404Z,4.50
2018-07-04T22:31:14.853Z,4.80
2018-07-04T22:34:01.275Z,4.20
2018-07-04T22:36:47.591Z,5.10
2018-07-04T22:39:33.997Z,5.17
2018-07-04T22:42:20.290Z,5.23
2018-07-04T22:45:06.785Z,4.57
2018-07-04T22:47:53.100Z,4.50
2018-07-04T22:50:39.562Z,5.23
2018-07-04T22:53:25.983Z,5.27
2018-07-04T22:56:12.332Z,5.97
2018-07-04T22:58:58.891Z,5.20
2018-07-04T23:01:45.360Z,5.27
2018-07-04T23:04:31.739Z,4.53
2018-07-04T23:07:18.317Z,4.80
2018-07-04T23:10:04.532Z,5.80
2018-07-04T23:12:50.799Z,4.90
2018-07-04T23:15:37.168Z,5.00
2018-07-04T23:18:23.736Z,4.93
2018-07-04T23:21:10.395Z,5.53
2018-07-04T23:24:01.191Z,5.40
2018-07-04T23:26:47.619Z,4.90
2018-07-04T23:29:34.000Z,5.40
2018-07-04T23:32:21.363Z,5.77
2018-07-04T23:35:07.832Z,5.60
2018-07-04T23:37:54.129Z,5.77
2018-07-04T23:40:40.515Z,5.67
2018-07-04T23:43:26.993Z,6.97
2018-07-04T23:46:13.564Z,5.40
2018-07-04T23:48:59.948Z,5.27
2018-07-04T23:51:46.327Z,5.20
2018-07-04T23:54:32.787Z,5.37
2018-07-04T23:57:19.065Z,6.00
